sensor_id;sensor_type;location;lat;lon;timestamp;temperature;humidity
51175;DHT22;37240;50.104;20.010;2022-11-13T00:04:14;11.20;99.90
51175;DHT22;37240;50.104;20.010;2022-11-13T00:09:15;11.20;99.90
51175;DHT22;37240;50.104;20.010;2022-11-13T00:14:15;11.20;99.90
51175;DHT22;37240;50.104;20.010;2022-11-13T00:19:16;11.20;99.90
51175;DHT22;37240;50.104;20.010;2022-11-13T00:24:16;11.10;99.90
51175;DHT22;37240;50.104;20.010;2022-11-13T00:29:17;11.10;99.90
51175;DHT22;37240;50.104;20.010;2022-11-13T00:34:17;11.10;99.90
51175;DHT22;37240;50.104;20.010;2022-11-13T00:39:18;11.00;99.90
51175;DHT22;37240;50.104;20.010;2022-11-13T00:44:18;11.00;99.90
51175;DHT22;37240;50.104;20.010;2022-11-13T00:49:19;10.90;99.90
51175;DHT22;37240;50.104;20.010;2022-11-13T00:54:19;10.90;99.90
51175;DHT22;37240;50.104;20.010;2022-11-13T00:59:20;10.80;99.90
51175;DHT22;37240;50.104;20.010;2022-11-13T01:04:21;10.90;99.90
51175;DHT22;37240;50.104;20.010;2022-11-13T01:09:21;10.80;99.90
51175;DHT22;37240;50.104;20.010;2022-11-13T01:14:22;10.80;99.90
51175;DHT22;37240;50.104;20.010;2022-11-13T01:19:22;10.80;99.90
51175;DHT22;37240;50.104;20.010;2022-11-13T01:24:23;10.80;99.90
51175;DHT22;37240;50.104;20.010;2022-11-13T01:29:23;10.80;99.90
51175;DHT22;37240;50.104;20.010;2022-11-13T01:34:24;10.80;99.90
51175;DHT22;37240;50.104;20.010;2022-11-13T01:39:24;10.80;99.90
51175;DHT22;37240;50.104;20.010;2022-11-13T01:44:26;10.70;99.90
51175;DHT22;37240;50.104;20.010;2022-11-13T01:49:45;10.70;99.90
51175;DHT22;37240;50.104;20.010;2022-11-13T01:54:49;10.70;99.90
51175;DHT22;37240;50.104;20.010;2022-11-13T01:59:55;10.70;99.90
51175;DHT22;37240;50.104;20.010;2022-11-13T02:04:57;10.70;99.90
51175;DHT22;37240;50.104;20.010;2022-11-13T02:09:58;10.70;99.90
51175;DHT22;37240;50.104;20.010;2022-11-13T02:15:00;10.70;99.90
51175;DHT22;37240;50.104;20.010;2022-11-13T02:20:04;10.60;99.90
51175;DHT22;37240;50.104;20.010;2022-11-13T02:25:06;10.60;99.90
51175;DHT22;37240;50.104;20.010;2022-11-13T02:30:21;10.60;99.90
51175;DHT22;37240;50.104;20.010;2022-11-13T02:35:26;10.60;99.90
51175;DHT22;37240;50.104;20.010;2022-11-13T02:40:28;10.60;99.90
51175;DHT22;37240;50.104;20.010;2022-11-13T02:45:28;10.60;99.90
51175;DHT22;37240;50.104;20.010;2022-11-13T02:50:29;10.60;99.90
51175;DHT22;37240;50.104;20.010;2022-11-13T02:55:30;10.60;99.90
51175;DHT22;37240;50.104;20.010;2022-11-13T03:00:30;10.60;99.90
51175;DHT22;37240;50.104;20.010;2022-11-13T03:05:31;10.60;99.90
51175;DHT22;37240;50.104;20.010;2022-11-13T03:10:31;10.60;99.90
51175;DHT22;37240;50.104;20.010;2022-11-13T03:15:33;10.60;99.90
51175;DHT22;37240;50.104;20.010;2022-11-13T03:20:35;10.60;99.90
51175;DHT22;37240;50.104;20.010;2022-11-13T03:25:36;10.50;99.90
51175;DHT22;37240;50.104;20.010;2022-11-13T03:30:36;10.50;99.90
51175;DHT22;37240;50.104;20.010;2022-11-13T03:35:37;10.50;99.90
51175;DHT22;37240;50.104;20.010;2022-11-13T03:40:37;10.40;99.90
51175;DHT22;37240;50.104;20.010;2022-11-13T03:45:38;10.50;99.90
51175;DHT22;37240;50.104;20.010;2022-11-13T03:50:41;10.50;99.90
51175;DHT22;37240;50.104;20.010;2022-11-13T03:55:42;10.50;99.90
51175;DHT22;37240;50.104;20.010;2022-11-13T04:00:43;10.60;99.90
51175;DHT22;37240;50.104;20.010;2022-11-13T04:05:47;10.60;99.90
51175;DHT22;37240;50.104;20.010;2022-11-13T04:10:48;10.60;99.90
51175;DHT22;37240;50.104;20.010;2022-11-13T04:15:48;10.60;99.90
51175;DHT22;37240;50.104;20.010;2022-11-13T04:20:49;10.50;99.90
51175;DHT22;37240;50.104;20.010;2022-11-13T04:25:49;10.50;99.90
51175;DHT22;37240;50.104;20.010;2022-11-13T04:30:52;10.50;99.90
51175;DHT22;37240;50.104;20.010;2022-11-13T04:35:53;10.50;99.90
51175;DHT22;37240;50.104;20.010;2022-11-13T04:40:54;10.50;99.90
51175;DHT22;37240;50.104;20.010;2022-11-13T04:45:54;10.50;99.90
51175;DHT22;37240;50.104;20.010;2022-11-13T04:50:55;10.50;99.90
51175;DHT22;37240;50.104;20.010;2022-11-13T04:55:55;10.50;99.90
51175;DHT22;37240;50.104;20.010;2022-11-13T05:00:56;10.50;99.90
51175;DHT22;37240;50.104;20.010;2022-11-13T05:06:04;10.50;99.90
51175;DHT22;37240;50.104;20.010;2022-11-13T05:11:05;10.40;99.90
51175;DHT22;37240;50.104;20.010;2022-11-13T05:16:10;10.40;99.90
51175;DHT22;37240;50.104;20.010;2022-11-13T05:21:11;10.40;99.90
51175;DHT22;37240;50.104;20.010;2022-11-13T05:26:12;10.50;99.90
51175;DHT22;37240;50.104;20.010;2022-11-13T05:31:14;10.50;99.90
51175;DHT22;37240;50.104;20.010;2022-11-13T05:36:17;10.50;99.90
51175;DHT22;37240;50.104;20.010;2022-11-13T05:41:19;10.50;99.90
51175;DHT22;37240;50.104;20.010;2022-11-13T05:46:23;10.60;99.90
51175;DHT22;37240;50.104;20.010;2022-11-13T05:51:26;10.50;99.90
51175;DHT22;37240;50.104;20.010;2022-11-13T05:56:30;10.40;99.90
51175;DHT22;37240;50.104;20.010;2022-11-13T06:01:40;10.50;99.90
51175;DHT22;37240;50.104;20.010;2022-11-13T06:06:40;10.40;99.90
51175;DHT22;37240;50.104;20.010;2022-11-13T06:11:41;10.50;99.90
51175;DHT22;37240;50.104;20.010;2022-11-13T06:16:41;10.60;99.90
51175;DHT22;37240;50.104;20.010;2022-11-13T06:21:42;10.40;99.90
51175;DHT22;37240;50.104;20.010;2022-11-13T06:26:42;10.40;99.90
51175;DHT22;37240;50.104;20.010;2022-11-13T06:31:43;10.40;99.90
51175;DHT22;37240;50.104;20.010;2022-11-13T06:36:43;10.40;99.90
51175;DHT22;37240;50.104;20.010;2022-11-13T06:41:44;10.40;99.90
51175;DHT22;37240;50.104;20.010;2022-11-13T06:46:44;10.50;99.90
51175;DHT22;37240;50.104;20.010;2022-11-13T06:51:45;10.50;99.90
51175;DHT22;37240;50.104;20.010;2022-11-13T06:56:45;10.20;99.90
51175;DHT22;37240;50.104;20.010;2022-11-13T07:01:49;10.30;99.90
51175;DHT22;37240;50.104;20.010;2022-11-13T07:06:50;10.30;99.90
51175;DHT22;37240;50.104;20.010;2022-11-13T07:11:50;10.30;99.90
51175;DHT22;37240;50.104;20.010;2022-11-13T07:16:51;10.30;99.90
51175;DHT22;37240;50.104;20.010;2022-11-13T07:21:51;10.40;99.90
51175;DHT22;37240;50.104;20.010;2022-11-13T07:26:52;10.40;99.90
51175;DHT22;37240;50.104;20.010;2022-11-13T07:31:52;10.40;99.90
51175;DHT22;37240;50.104;20.010;2022-11-13T07:36:53;10.50;99.90
51175;DHT22;37240;50.104;20.010;2022-11-13T07:41:53;10.50;99.90
51175;DHT22;37240;50.104;20.010;2022-11-13T07:46:54;10.30;99.90
51175;DHT22;37240;50.104;20.010;2022-11-13T07:51:54;10.30;99.90
51175;DHT22;37240;50.104;20.010;2022-11-13T07:56:55;10.30;99.90
51175;DHT22;37240;50.104;20.010;2022-11-13T08:01:55;10.30;99.90
51175;DHT22;37240;50.104;20.010;2022-11-13T08:06:56;10.30;99.90
51175;DHT22;37240;50.104;20.010;2022-11-13T08:11:56;10.30;99.90
51175;DHT22;37240;50.104;20.010;2022-11-13T08:16:57;10.40;99.90
51175;DHT22;37240;50.104;20.010;2022-11-13T08:21:57;10.50;99.90
51175;DHT22;37240;50.104;20.010;2022-11-13T08:26:58;10.40;99.90
51175;DHT22;37240;50.104;20.010;2022-11-13T08:31:58;10.50;99.90
51175;DHT22;37240;50.104;20.010;2022-11-13T08:36:59;10.50;99.90
51175;DHT22;37240;50.104;20.010;2022-11-13T08:41:59;10.40;99.90
51175;DHT22;37240;50.104;20.010;2022-11-13T08:47:00;10.40;99.90
51175;DHT22;37240;50.104;20.010;2022-11-13T08:52:00;10.40;99.90
51175;DHT22;37240;50.104;20.010;2022-11-13T08:57:01;10.30;99.90
51175;DHT22;37240;50.104;20.010;2022-11-13T09:02:01;10.20;99.90
51175;DHT22;37240;50.104;20.010;2022-11-13T09:07:02;10.30;99.90
51175;DHT22;37240;50.104;20.010;2022-11-13T09:12:03;10.40;99.90
51175;DHT22;37240;50.104;20.010;2022-11-13T09:17:03;10.40;99.90
51175;DHT22;37240;50.104;20.010;2022-11-13T09:22:04;10.30;99.90
51175;DHT22;37240;50.104;20.010;2022-11-13T09:27:05;10.20;99.90
51175;DHT22;37240;50.104;20.010;2022-11-13T09:32:05;10.20;99.90
51175;DHT22;37240;50.104;20.010;2022-11-13T09:37:06;10.10;99.90
51175;DHT22;37240;50.104;20.010;2022-11-13T09:42:19;10.10;99.90
51175;DHT22;37240;50.104;20.010;2022-11-13T09:47:25;10.10;99.90
51175;DHT22;37240;50.104;20.010;2022-11-13T09:52:38;10.10;99.90
51175;DHT22;37240;50.104;20.010;2022-11-13T09:57:52;10.10;99.90
51175;DHT22;37240;50.104;20.010;2022-11-13T10:08:50;10.10;99.90
51175;DHT22;37240;50.104;20.010;2022-11-13T10:13:58;10.10;99.90
51175;DHT22;37240;50.104;20.010;2022-11-13T10:19:22;10.20;99.90
51175;DHT22;37240;50.104;20.010;2022-11-13T10:24:37;10.30;99.90
51175;DHT22;37240;50.104;20.010;2022-11-13T10:29:39;10.40;99.90
51175;DHT22;37240;50.104;20.010;2022-11-13T10:34:43;10.50;99.90
51175;DHT22;37240;50.104;20.010;2022-11-13T10:39:44;10.50;99.90
51175;DHT22;37240;50.104;20.010;2022-11-13T10:44:53;10.40;99.90
51175;DHT22;37240;50.104;20.010;2022-11-13T10:49:55;10.50;99.90
51175;DHT22;37240;50.104;20.010;2022-11-13T11:00:35;10.40;99.90
51175;DHT22;37240;50.104;20.010;2022-11-13T11:05:36;10.50;99.90
51175;DHT22;37240;50.104;20.010;2022-11-13T11:10:38;10.50;99.90
51175;DHT22;37240;50.104;20.010;2022-11-13T11:15:53;10.70;99.90
51175;DHT22;37240;50.104;20.010;2022-11-13T11:21:00;10.70;99.90
51175;DHT22;37240;50.104;20.010;2022-11-13T11:26:20;10.70;99.90
51175;DHT22;37240;50.104;20.010;2022-11-13T11:36:57;10.60;99.90
51175;DHT22;37240;50.104;20.010;2022-11-13T11:47:15;10.70;99.90
51175;DHT22;37240;50.104;20.010;2022-11-13T11:52:30;10.80;99.90
51175;DHT22;37240;50.104;20.010;2022-11-13T11:57:40;10.70;99.90
51175;DHT22;37240;50.104;20.010;2022-11-13T12:14:03;10.90;99.90
51175;DHT22;37240;50.104;20.010;2022-11-13T12:39:50;10.90;99.90
51175;DHT22;37240;50.104;20.010;2022-11-13T12:50:28;10.70;99.90
51175;DHT22;37240;50.104;20.010;2022-11-13T12:55:35;10.60;99.90
51175;DHT22;37240;50.104;20.010;2022-11-13T13:00:38;10.60;99.90
51175;DHT22;37240;50.104;20.010;2022-11-13T13:16:01;11.00;99.90
51175;DHT22;37240;50.104;20.010;2022-11-13T13:21:09;10.90;99.90
51175;DHT22;37240;50.104;20.010;2022-11-13T13:26:24;10.90;99.90
51175;DHT22;37240;50.104;20.010;2022-11-13T13:37:00;10.60;99.90
51175;DHT22;37240;50.104;20.010;2022-11-13T13:47:37;10.70;99.90
51175;DHT22;37240;50.104;20.010;2022-11-13T13:52:39;10.70;99.90
51175;DHT22;37240;50.104;20.010;2022-11-13T13:57:42;10.70;99.90
51175;DHT22;37240;50.104;20.010;2022-11-13T14:02:47;10.60;99.90
51175;DHT22;37240;50.104;20.010;2022-11-13T14:07:48;10.50;99.90
51175;DHT22;37240;50.104;20.010;2022-11-13T14:12:49;10.60;99.90
51175;DHT22;37240;50.104;20.010;2022-11-13T14:17:49;10.50;99.90
51175;DHT22;37240;50.104;20.010;2022-11-13T14:22:51;10.40;99.90
51175;DHT22;37240;50.104;20.010;2022-11-13T14:27:51;10.40;99.90
51175;DHT22;37240;50.104;20.010;2022-11-13T14:32:52;10.40;99.90
51175;DHT22;37240;50.104;20.010;2022-11-13T14:37:54;10.40;99.90
51175;DHT22;37240;50.104;20.010;2022-11-13T14:42:58;10.50;99.90
51175;DHT22;37240;50.104;20.010;2022-11-13T14:48:21;10.40;99.90
51175;DHT22;37240;50.104;20.010;2022-11-13T14:53:34;10.20;99.90
51175;DHT22;37240;50.104;20.010;2022-11-13T14:58:40;10.00;99.90
51175;DHT22;37240;50.104;20.010;2022-11-13T15:03:42;9.80;99.90
51175;DHT22;37240;50.104;20.010;2022-11-13T15:08:44;9.80;99.90
51175;DHT22;37240;50.104;20.010;2022-11-13T15:13:45;9.70;99.90
51175;DHT22;37240;50.104;20.010;2022-11-13T15:19:09;9.50;99.90
51175;DHT22;37240;50.104;20.010;2022-11-13T15:24:11;9.60;99.90
51175;DHT22;37240;50.104;20.010;2022-11-13T15:29:11;9.50;99.90
51175;DHT22;37240;50.104;20.010;2022-11-13T15:34:14;9.60;99.90
51175;DHT22;37240;50.104;20.010;2022-11-13T15:39:14;9.60;99.90
51175;DHT22;37240;50.104;20.010;2022-11-13T15:44:15;9.50;99.90
51175;DHT22;37240;50.104;20.010;2022-11-13T15:49:15;9.40;99.90
51175;DHT22;37240;50.104;20.010;2022-11-13T15:54:23;9.30;99.90
51175;DHT22;37240;50.104;20.010;2022-11-13T15:59:24;9.40;99.90
51175;DHT22;37240;50.104;20.010;2022-11-13T16:04:25;9.40;99.90
51175;DHT22;37240;50.104;20.010;2022-11-13T16:09:25;9.40;99.90
51175;DHT22;37240;50.104;20.010;2022-11-13T16:14:26;9.30;99.90
51175;DHT22;37240;50.104;20.010;2022-11-13T16:19:26;9.40;99.90
51175;DHT22;37240;50.104;20.010;2022-11-13T16:24:27;9.50;99.90
51175;DHT22;37240;50.104;20.010;2022-11-13T16:29:27;9.30;99.90
51175;DHT22;37240;50.104;20.010;2022-11-13T16:34:28;9.20;99.90
51175;DHT22;37240;50.104;20.010;2022-11-13T16:39:28;9.30;99.90
51175;DHT22;37240;50.104;20.010;2022-11-13T16:44:29;9.50;99.90
51175;DHT22;37240;50.104;20.010;2022-11-13T16:49:29;9.60;99.90
51175;DHT22;37240;50.104;20.010;2022-11-13T16:54:30;9.80;99.90
51175;DHT22;37240;50.104;20.010;2022-11-13T16:59:30;9.80;99.90
51175;DHT22;37240;50.104;20.010;2022-11-13T17:04:31;9.90;99.90
51175;DHT22;37240;50.104;20.010;2022-11-13T17:09:31;9.90;99.90
51175;DHT22;37240;50.104;20.010;2022-11-13T17:14:32;9.80;99.90
51175;DHT22;37240;50.104;20.010;2022-11-13T17:19:32;9.70;99.90
51175;DHT22;37240;50.104;20.010;2022-11-13T17:24:33;9.50;99.90
51175;DHT22;37240;50.104;20.010;2022-11-13T17:29:33;9.40;99.90
51175;DHT22;37240;50.104;20.010;2022-11-13T17:34:34;9.40;99.90
51175;DHT22;37240;50.104;20.010;2022-11-13T17:39:34;9.40;99.90
51175;DHT22;37240;50.104;20.010;2022-11-13T17:44:35;9.40;99.90
51175;DHT22;37240;50.104;20.010;2022-11-13T17:49:35;9.40;99.90
51175;DHT22;37240;50.104;20.010;2022-11-13T17:54:35;9.20;99.90
51175;DHT22;37240;50.104;20.010;2022-11-13T17:59:36;9.20;99.90
51175;DHT22;37240;50.104;20.010;2022-11-13T18:04:36;9.30;99.90
51175;DHT22;37240;50.104;20.010;2022-11-13T18:09:37;9.20;99.90
51175;DHT22;37240;50.104;20.010;2022-11-13T18:14:37;9.20;99.90
51175;DHT22;37240;50.104;20.010;2022-11-13T18:19:38;9.10;99.90
51175;DHT22;37240;50.104;20.010;2022-11-13T18:24:38;9.20;99.90
51175;DHT22;37240;50.104;20.010;2022-11-13T18:29:39;9.30;99.90
51175;DHT22;37240;50.104;20.010;2022-11-13T18:34:40;9.40;99.90
51175;DHT22;37240;50.104;20.010;2022-11-13T18:39:40;9.50;99.90
51175;DHT22;37240;50.104;20.010;2022-11-13T18:44:41;9.30;99.90
51175;DHT22;37240;50.104;20.010;2022-11-13T18:49:42;9.30;99.90
51175;DHT22;37240;50.104;20.010;2022-11-13T18:54:43;9.30;99.90
51175;DHT22;37240;50.104;20.010;2022-11-13T18:59:43;9.30;99.90
51175;DHT22;37240;50.104;20.010;2022-11-13T19:04:44;9.30;99.90
51175;DHT22;37240;50.104;20.010;2022-11-13T19:09:44;9.20;99.90
51175;DHT22;37240;50.104;20.010;2022-11-13T19:14:45;9.20;99.90
51175;DHT22;37240;50.104;20.010;2022-11-13T19:19:45;9.10;99.90
51175;DHT22;37240;50.104;20.010;2022-11-13T19:24:45;9.10;99.90
51175;DHT22;37240;50.104;20.010;2022-11-13T19:29:46;9.00;99.90
51175;DHT22;37240;50.104;20.010;2022-11-13T19:34:47;9.00;99.90
51175;DHT22;37240;50.104;20.010;2022-11-13T19:39:47;9.20;99.90
51175;DHT22;37240;50.104;20.010;2022-11-13T19:44:48;9.40;99.90
51175;DHT22;37240;50.104;20.010;2022-11-13T19:49:48;9.30;99.90
51175;DHT22;37240;50.104;20.010;2022-11-13T19:54:49;9.10;99.90
51175;DHT22;37240;50.104;20.010;2022-11-13T19:59:49;9.10;99.90
51175;DHT22;37240;50.104;20.010;2022-11-13T20:04:50;9.10;99.90
51175;DHT22;37240;50.104;20.010;2022-11-13T20:09:50;9.20;99.90
51175;DHT22;37240;50.104;20.010;2022-11-13T20:14:51;9.10;99.90
51175;DHT22;37240;50.104;20.010;2022-11-13T20:19:51;9.10;99.90
51175;DHT22;37240;50.104;20.010;2022-11-13T20:24:52;9.20;99.90
51175;DHT22;37240;50.104;20.010;2022-11-13T20:29:52;9.10;99.90
51175;DHT22;37240;50.104;20.010;2022-11-13T20:34:53;9.10;99.90
51175;DHT22;37240;50.104;20.010;2022-11-13T20:39:53;8.90;99.90
51175;DHT22;37240;50.104;20.010;2022-11-13T20:44:54;8.70;99.90
51175;DHT22;37240;50.104;20.010;2022-11-13T20:49:54;8.80;99.90
51175;DHT22;37240;50.104;20.010;2022-11-13T20:54:55;8.70;99.90
51175;DHT22;37240;50.104;20.010;2022-11-13T20:59:55;8.80;99.90
51175;DHT22;37240;50.104;20.010;2022-11-13T21:04:56;8.90;99.90
51175;DHT22;37240;50.104;20.010;2022-11-13T21:09:56;8.80;99.90
51175;DHT22;37240;50.104;20.010;2022-11-13T21:14:57;8.70;99.90
51175;DHT22;37240;50.104;20.010;2022-11-13T21:19:57;8.70;99.90
51175;DHT22;37240;50.104;20.010;2022-11-13T21:24:58;8.90;99.90
51175;DHT22;37240;50.104;20.010;2022-11-13T21:29:58;8.90;99.90
51175;DHT22;37240;50.104;20.010;2022-11-13T21:34:59;9.00;99.90
51175;DHT22;37240;50.104;20.010;2022-11-13T21:39:59;9.00;99.90
51175;DHT22;37240;50.104;20.010;2022-11-13T21:45:00;9.10;99.90
51175;DHT22;37240;50.104;20.010;2022-11-13T21:50:00;9.00;99.90
51175;DHT22;37240;50.104;20.010;2022-11-13T21:55:01;9.00;99.90
51175;DHT22;37240;50.104;20.010;2022-11-13T22:00:02;8.80;99.90
51175;DHT22;37240;50.104;20.010;2022-11-13T22:05:03;8.90;99.90
51175;DHT22;37240;50.104;20.010;2022-11-13T22:10:04;9.00;99.90
51175;DHT22;37240;50.104;20.010;2022-11-13T22:15:05;9.00;99.90
51175;DHT22;37240;50.104;20.010;2022-11-13T22:20:06;9.10;99.90
51175;DHT22;37240;50.104;20.010;2022-11-13T22:25:07;9.10;99.90
51175;DHT22;37240;50.104;20.010;2022-11-13T22:30:08;9.10;99.90
51175;DHT22;37240;50.104;20.010;2022-11-13T22:35:08;9.10;99.90
51175;DHT22;37240;50.104;20.010;2022-11-13T22:40:10;9.20;99.90
51175;DHT22;37240;50.104;20.010;2022-11-13T22:45:11;9.10;99.90
51175;DHT22;37240;50.104;20.010;2022-11-13T22:50:11;9.10;99.90
51175;DHT22;37240;50.104;20.010;2022-11-13T22:55:12;9.10;99.90
51175;DHT22;37240;50.104;20.010;2022-11-13T23:00:13;9.10;99.90
51175;DHT22;37240;50.104;20.010;2022-11-13T23:05:13;9.10;99.90
51175;DHT22;37240;50.104;20.010;2022-11-13T23:10:14;9.10;99.90
51175;DHT22;37240;50.104;20.010;2022-11-13T23:15:14;9.20;99.90
51175;DHT22;37240;50.104;20.010;2022-11-13T23:20:15;9.10;99.90
51175;DHT22;37240;50.104;20.010;2022-11-13T23:25:15;9.20;99.90
51175;DHT22;37240;50.104;20.010;2022-11-13T23:30:16;9.20;99.90
51175;DHT22;37240;50.104;20.010;2022-11-13T23:35:16;9.20;99.90
51175;DHT22;37240;50.104;20.010;2022-11-13T23:40:17;9.10;99.90
51175;DHT22;37240;50.104;20.010;2022-11-13T23:45:17;8.90;99.90
51175;DHT22;37240;50.104;20.010;2022-11-13T23:50:18;8.80;99.90
51175;DHT22;37240;50.104;20.010;2022-11-13T23:55:18;8.90;99.90
